Time;durP1;ratioP1;P1;durP2;ratioP2;P2;SDS_P1;SDS_P2;PMS_P1;PMS_P2;Temp;Humidity;BMP_temperature;BMP_pressure;BME280_temperature;BME280_humidity;BME280_pressure;Samples;Min_cycle;Max_cycle;Signal;HPM_P1;HPM_P2
2022/11/19 00:03:57;;;;;;;7.13;4.38;;;;;;;6.05;69.44;99048.66;10312684;28;20096;-78
2022/11/19 00:08:59;;;;;;;7.15;5.07;;;;;;;6.20;69.52;99048.66;10310748;28;20050;-78
2022/11/19 00:14:01;;;;;;;7.55;5.05;;;;;;;5.94;69.24;99038.88;10311175;28;20050;-78
2022/11/19 00:19:03;;;;;;;5.90;4.05;;;;;;;5.61;69.51;99035.53;10312270;28;20424;-78
2022/11/19 00:24:05;;;;;;;10.73;4.95;;;;;;;5.55;69.50;99048.84;10328302;28;20051;-78
2022/11/19 00:29:11;;;;;;;5.82;4.40;;;;;;;5.42;69.31;99055.56;10311013;28;20050;-78
2022/11/19 00:34:18;;;;;;;7.57;4.13;;;;;;;5.11;68.59;99065.84;10327415;28;20055;-78
2022/11/19 00:39:20;;;;;;;6.20;4.22;;;;;;;4.82;68.89;99064.72;10311321;28;20142;-78
2022/11/19 00:44:22;;;;;;;6.72;5.15;;;;;;;4.52;69.50;99071.44;10310837;28;20050;-79
2022/11/19 00:49:39;;;;;;;7.30;5.40;;;;;;;4.29;69.35;99069.94;10312509;28;20054;-78
2022/11/19 00:54:41;;;;;;;9.75;6.50;;;;;;;4.32;69.91;99075.00;10310647;28;20080;-78
2022/11/19 00:59:42;;;;;;;9.15;7.05;;;;;;;4.04;70.23;99084.97;10310802;28;20058;-78
2022/11/19 01:04:44;;;;;;;10.60;6.70;;;;;;;3.95;70.00;99089.72;10310356;28;20061;-78
2022/11/19 01:09:46;;;;;;;9.57;6.97;;;;;;;3.61;69.88;99092.97;10324853;28;20050;-78
2022/11/19 01:14:47;;;;;;;11.95;8.02;;;;;;;3.62;70.31;99105.81;10310032;28;20050;-78
2022/11/19 01:19:49;;;;;;;11.10;7.80;;;;;;;3.62;70.16;99103.25;10308833;28;20420;-78
2022/11/19 01:24:51;;;;;;;12.48;8.85;;;;;;;3.46;69.92;99109.16;10309617;28;20046;-78
2022/11/19 01:29:53;;;;;;;13.10;8.70;;;;;;;3.44;69.93;99116.97;10309310;28;20785;-78
2022/11/19 01:34:54;;;;;;;11.65;8.63;;;;;;;3.21;69.89;99121.47;10306873;28;20046;-78
2022/11/19 01:39:58;;;;;;;14.40;10.02;;;;;;;2.94;70.59;99114.00;10316860;28;21128;-79
2022/11/19 01:45:04;;;;;;;15.20;10.82;;;;;;;2.84;70.69;99110.13;10319257;28;20150;-78
2022/11/19 01:50:06;;;;;;;14.82;11.32;;;;;;;2.82;71.05;99118.81;10317931;28;20069;-78
2022/11/19 01:55:08;;;;;;;17.00;11.32;;;;;;;2.88;70.56;99129.75;10333126;28;20066;-78
2022/11/19 02:00:10;;;;;;;17.85;11.52;;;;;;;2.98;70.67;99130.19;10322064;28;20057;-78
2022/11/19 02:05:12;;;;;;;17.65;12.65;;;;;;;2.94;70.72;99131.22;10316631;28;20057;-78
2022/11/19 02:10:14;;;;;;;17.98;12.65;;;;;;;3.12;70.26;99132.19;10316274;28;20069;-78
2022/11/19 02:15:44;;;;;;;18.67;12.48;;;;;;;3.33;70.49;99136.47;10322510;28;20061;-78
2022/11/19 02:20:52;;;;;;;17.00;12.40;;;;;;;3.41;70.12;99136.97;10314663;28;20050;-78
2022/11/19 02:26:29;;;;;;;15.10;11.38;;;;;;;3.36;68.85;99151.81;10325656;28;20050;-78
2022/11/19 02:32:13;;;;;;;16.30;12.63;;;;;;;3.17;69.37;99158.69;10312648;28;20492;-78
2022/11/19 02:37:28;;;;;;;20.88;14.25;;;;;;;3.24;69.48;99153.19;10317965;28;20046;-78
2022/11/19 02:42:35;;;;;;;17.45;12.88;;;;;;;3.39;69.18;99151.69;10332905;28;20075;-78
2022/11/19 02:47:44;;;;;;;18.08;13.65;;;;;;;3.47;69.22;99157.38;10316070;28;20944;-78
2022/11/19 02:52:47;;;;;;;18.60;14.82;;;;;;;3.09;68.89;99159.00;10330954;28;20054;-78
2022/11/19 02:58:04;;;;;;;18.33;14.75;;;;;;;2.80;69.12;99167.09;10318158;28;20042;-78
2022/11/19 03:08:34;;;;;;;20.92;16.98;;;;;;;2.83;69.43;99162.66;10323442;28;20065;-78
2022/11/19 03:19:29;;;;;;;27.80;20.55;;;;;;;2.71;69.44;99164.88;10322353;28;20050;-78
2022/11/19 03:24:59;;;;;;;26.70;19.95;;;;;;;2.37;69.18;99175.72;10320798;28;20053;-78
2022/11/19 03:30:02;;;;;;;27.40;21.58;;;;;;;2.25;69.94;99168.44;10319928;28;20057;-79
2022/11/19 03:35:09;;;;;;;27.48;21.30;;;;;;;2.13;70.06;99180.03;10322433;28;20062;-79
2022/11/19 03:40:14;;;;;;;25.70;20.70;;;;;;;2.22;70.53;99169.38;10320336;28;20050;-81
2022/11/19 03:45:45;;;;;;;25.38;20.02;;;;;;;2.00;69.63;99184.00;10321863;28;20054;-79
2022/11/19 03:51:06;;;;;;;27.23;20.83;;;;;;;2.24;70.75;99200.28;10317890;28;20421;-79
2022/11/19 03:56:10;;;;;;;24.17;18.92;;;;;;;1.86;69.64;99195.69;10319690;28;20065;-79
2022/11/19 04:01:13;;;;;;;24.52;19.25;;;;;;;1.78;69.83;99187.41;10327470;28;20081;-80
2022/11/19 04:06:14;;;;;;;29.00;20.40;;;;;;;1.62;70.86;99189.69;10315990;28;20050;-79
2022/11/19 04:11:16;;;;;;;25.85;18.92;;;;;;;1.62;70.57;99202.59;10312047;28;21074;-80
2022/11/19 04:16:17;;;;;;;26.17;19.58;;;;;;;1.29;71.22;99207.16;10313513;28;20512;-79
2022/11/19 04:21:19;;;;;;;29.25;21.70;;;;;;;1.40;70.94;99211.09;10319188;28;20050;-79
2022/11/19 04:26:20;;;;;;;27.25;21.10;;;;;;;1.43;71.24;99211.84;10320613;28;20500;-79
2022/11/19 04:31:22;;;;;;;28.23;21.15;;;;;;;1.70;71.10;99212.63;10319816;28;20065;-79
2022/11/19 04:36:27;;;;;;;28.83;22.05;;;;;;;1.66;70.67;99217.03;10312098;28;20042;-79
2022/11/19 04:41:29;;;;;;;31.50;23.02;;;;;;;1.87;71.15;99218.03;10321829;28;20065;-79
2022/11/19 04:46:31;;;;;;;29.50;21.77;;;;;;;1.68;70.46;99235.03;10312874;28;20054;-79
2022/11/19 04:51:33;;;;;;;30.38;22.70;;;;;;;1.57;70.94;99232.81;10312547;28;20436;-79
2022/11/19 04:56:35;;;;;;;33.83;23.48;;;;;;;1.59;70.58;99233.59;10311061;28;20058;-79
2022/11/19 05:01:37;;;;;;;29.15;21.63;;;;;;;1.63;70.32;99249.78;10313774;28;20500;-79
2022/11/19 05:06:38;;;;;;;34.42;24.42;;;;;;;1.65;70.46;99245.44;10312575;28;20060;-79
2022/11/19 05:11:40;;;;;;;29.58;21.83;;;;;;;1.59;69.83;99233.59;10312807;28;20069;-79
2022/11/19 05:16:42;;;;;;;30.83;22.20;;;;;;;1.79;70.42;99236.31;10318829;28;20069;-79
2022/11/19 05:21:43;;;;;;;30.90;22.08;;;;;;;1.65;70.27;99246.28;10311529;28;20054;-80
2022/11/19 05:26:45;;;;;;;27.95;19.60;;;;;;;1.53;69.63;99249.28;10311483;28;20046;-79
2022/11/19 05:31:47;;;;;;;35.95;23.35;;;;;;;1.68;70.55;99263.38;10311896;28;20070;-79
2022/11/19 05:36:49;;;;;;;27.08;20.45;;;;;;;1.87;69.96;99254.13;10308567;28;20050;-79
2022/11/19 05:41:50;;;;;;;32.20;22.67;;;;;;;1.93;69.73;99254.72;10311824;28;20057;-79
2022/11/19 05:46:52;;;;;;;33.40;22.40;;;;;;;1.59;69.67;99263.69;10311188;28;20050;-79
2022/11/19 05:51:54;;;;;;;34.85;24.13;;;;;;;1.16;70.04;99269.41;10310330;28;20058;-79
2022/11/19 05:56:55;;;;;;;31.02;22.27;;;;;;;1.17;70.50;99269.38;10325585;28;20065;-79
2022/11/19 06:01:57;;;;;;;32.15;23.40;;;;;;;1.35;70.75;99276.50;10318675;28;20505;-79
2022/11/19 06:06:59;;;;;;;29.50;21.88;;;;;;;1.28;70.19;99269.00;10317256;28;20069;-79
2022/11/19 06:12:00;;;;;;;33.35;23.30;;;;;;;1.24;70.40;99273.44;10327468;28;20142;-79
2022/11/19 06:17:02;;;;;;;35.47;23.65;;;;;;;1.14;70.36;99279.78;10309481;28;20051;-79
2022/11/19 06:22:04;;;;;;;36.45;24.20;;;;;;;1.18;70.74;99281.34;10317579;28;20046;-79
2022/11/19 06:27:06;;;;;;;34.10;23.05;;;;;;;1.17;70.16;99281.41;10332636;28;20060;-79
2022/11/19 06:32:07;;;;;;;33.40;22.90;;;;;;;0.94;70.31;99291.59;10318829;28;20169;-79
2022/11/19 06:37:09;;;;;;;43.88;25.48;;;;;;;1.30;70.91;99304.13;10324668;28;20073;-79
2022/11/19 06:47:32;;;;;;;40.53;24.38;;;;;;;1.12;70.82;99303.88;10316797;28;20042;-79
2022/11/19 06:52:34;;;;;;;30.52;20.83;;;;;;;1.35;70.54;99312.56;10308627;28;20054;-79
2022/11/19 06:57:36;;;;;;;34.00;22.02;;;;;;;1.25;70.17;99313.75;10318045;28;20046;-79
2022/11/19 07:02:37;;;;;;;31.45;21.02;;;;;;;1.06;70.14;99325.53;10323249;28;20056;-79
2022/11/19 07:07:39;;;;;;;34.72;22.08;;;;;;;0.96;70.38;99324.13;10318581;28;20054;-79
2022/11/19 07:12:41;;;;;;;37.08;23.00;;;;;;;0.91;70.43;99331.13;10332282;28;20054;-79
2022/11/19 07:17:43;;;;;;;33.38;21.45;;;;;;;0.78;70.45;99334.97;10315889;28;20057;-79
2022/11/19 07:22:45;;;;;;;37.67;23.23;;;;;;;0.88;70.83;99340.69;10331547;28;20443;-80
2022/11/19 07:27:47;;;;;;;57.08;24.25;;;;;;;1.25;70.65;99336.94;10317893;28;20050;-80
2022/11/19 07:32:48;;;;;;;37.22;22.48;;;;;;;1.16;70.17;99329.50;10330217;28;20065;-79
2022/11/19 07:37:50;;;;;;;31.25;20.75;;;;;;;1.20;69.92;99353.41;10314806;28;20049;-79
2022/11/19 07:42:52;;;;;;;34.97;22.13;;;;;;;0.95;70.17;99355.88;10316536;28;20061;-79
2022/11/19 07:47:53;;;;;;;40.22;22.63;;;;;;;1.06;70.38;99364.16;10329456;28;20385;-80
2022/11/19 07:52:58;;;;;;;36.20;21.52;;;;;;;1.05;70.03;99372.78;10329003;28;20069;-80
2022/11/19 07:57:59;;;;;;;35.40;21.85;;;;;;;0.98;69.79;99373.84;10314367;28;20042;-80
2022/11/19 08:03:01;;;;;;;33.80;21.67;;;;;;;1.09;69.56;99374.38;10314190;28;20050;-80
2022/11/19 08:08:03;;;;;;;33.63;22.35;;;;;;;1.25;69.65;99377.31;10314133;28;20065;-79
2022/11/19 08:13:04;;;;;;;33.38;21.95;;;;;;;1.50;69.47;99372.22;10329194;28;20061;-80
2022/11/19 08:18:12;;;;;;;34.15;22.08;;;;;;;1.47;68.98;99377.47;10313162;28;20077;-80
2022/11/19 08:23:14;;;;;;;35.85;22.67;;;;;;;1.46;69.07;99380.94;10312503;28;20058;-79
2022/11/19 08:28:18;;;;;;;38.83;23.20;;;;;;;1.38;68.86;99389.75;10309396;28;20051;-79
2022/11/19 08:33:22;;;;;;;32.17;21.80;;;;;;;1.60;68.76;99389.06;10310776;28;20057;-79
2022/11/19 08:38:26;;;;;;;38.80;23.08;;;;;;;1.75;68.96;99384.25;10306655;28;20153;-79
2022/11/19 08:43:28;;;;;;;34.58;22.30;;;;;;;1.82;68.22;99392.63;10312005;28;20050;-79
2022/11/19 08:48:31;;;;;;;32.20;21.42;;;;;;;1.76;68.41;99403.16;10303084;28;20043;-79
2022/11/19 08:53:40;;;;;;;33.53;22.00;;;;;;;1.38;68.48;99402.63;10317781;28;20513;-79
2022/11/19 08:58:44;;;;;;;38.03;23.60;;;;;;;1.54;68.71;99404.72;10307840;28;20053;-79
2022/11/19 09:03:52;;;;;;;32.13;21.98;;;;;;;1.68;67.93;99403.41;10306799;28;20046;-79
2022/11/19 09:09:01;;;;;;;34.40;22.00;;;;;;;1.59;68.26;99405.41;10310594;28;20057;-79
2022/11/19 09:14:04;;;;;;;35.95;22.40;;;;;;;1.77;68.04;99415.13;10310684;28;20061;-78
2022/11/19 09:19:08;;;;;;;31.70;20.98;;;;;;;1.86;67.64;99414.84;10309092;28;20050;-78
2022/11/19 09:24:21;;;;;;;33.47;22.15;;;;;;;1.68;68.11;99424.03;10307221;28;20050;-78
2022/11/19 09:29:25;;;;;;;42.08;23.58;;;;;;;1.71;67.86;99436.81;10309223;28;20129;-78
2022/11/19 09:34:27;;;;;;;34.88;22.88;;;;;;;1.41;68.42;99439.50;10306720;28;20065;-78
2022/11/19 09:39:32;;;;;;;38.40;22.77;;;;;;;1.36;68.42;99442.19;10311035;28;20053;-77
2022/11/19 09:44:59;;;;;;;34.45;22.05;;;;;;;1.23;67.99;99446.91;10307232;28;20085;-77
2022/11/19 09:50:22;;;;;;;32.33;21.80;;;;;;;1.36;68.23;99443.06;10306633;28;20420;-78
2022/11/19 09:55:40;;;;;;;31.75;21.25;;;;;;;1.43;68.05;99445.44;10314755;28;20054;-78
2022/11/19 10:00:43;;;;;;;32.47;21.40;;;;;;;1.59;68.02;99450.06;10324900;28;20758;-78
2022/11/19 10:06:27;;;;;;;34.03;22.38;;;;;;;1.76;67.38;99457.28;10313449;28;20053;-77
2022/11/19 10:11:54;;;;;;;31.88;21.48;;;;;;;1.92;67.26;99459.34;10310851;28;20050;-78
2022/11/19 10:17:18;;;;;;;27.15;19.23;;;;;;;2.03;66.76;99466.72;10306313;28;20051;-79
2022/11/19 10:22:29;;;;;;;33.20;22.20;;;;;;;1.96;67.74;99465.22;10310421;28;20100;-78
2022/11/19 10:27:45;;;;;;;30.90;21.23;;;;;;;2.06;67.57;99453.72;10325732;28;20068;-78
2022/11/19 10:33:06;;;;;;;28.83;20.73;;;;;;;1.79;66.75;99467.50;10315611;28;20054;-79
2022/11/19 10:38:24;;;;;;;33.75;21.95;;;;;;;1.79;67.29;99468.34;10320456;28;20519;-78
2022/11/19 10:43:33;;;;;;;31.00;21.10;;;;;;;1.70;67.17;99475.53;10315506;28;20424;-78
2022/11/19 10:48:47;;;;;;;28.60;20.40;;;;;;;1.93;67.41;99455.03;10313425;28;20042;-77
2022/11/19 10:53:53;;;;;;;30.92;21.38;;;;;;;2.02;67.22;99457.28;10312838;28;20420;-77
2022/11/19 10:59:02;;;;;;;27.17;19.52;;;;;;;2.12;66.43;99450.94;10313042;28;20061;-79
2022/11/19 11:04:28;;;;;;;26.73;19.58;;;;;;;2.00;65.38;99449.59;10313166;28;20705;-77
2022/11/19 11:09:38;;;;;;;26.85;20.10;;;;;;;1.78;66.45;99461.50;10328420;28;20056;-78
2022/11/19 11:14:52;;;;;;;29.50;20.57;;;;;;;1.73;66.62;99457.38;10327523;28;20046;-79
2022/11/19 11:20:19;;;;;;;27.27;19.83;;;;;;;1.82;66.30;99460.53;10319886;28;20054;-78
2022/11/19 11:25:26;;;;;;;29.42;20.77;;;;;;;2.00;66.69;99452.19;10311988;28;20054;-78
2022/11/19 11:30:35;;;;;;;29.77;21.15;;;;;;;2.04;66.80;99435.72;10321722;28;20050;-78
2022/11/19 11:35:44;;;;;;;29.13;20.40;;;;;;;1.85;66.67;99452.66;10310824;28;20054;-79
2022/11/19 11:41:00;;;;;;;28.35;19.98;;;;;;;1.99;66.37;99457.41;10311453;28;20050;-78
2022/11/19 11:46:22;;;;;;;29.13;20.48;;;;;;;1.98;66.31;99458.28;10309184;28;20047;-78
2022/11/19 11:51:27;;;;;;;28.35;21.10;;;;;;;2.21;66.52;99454.03;10312207;28;20046;-78
2022/11/19 11:56:30;;;;;;;32.00;21.65;;;;;;;2.30;66.36;99460.63;10309169;28;20050;-78
2022/11/19 12:01:31;;;;;;;28.90;21.08;;;;;;;2.22;66.52;99462.63;10319023;28;20058;-77
2022/11/19 12:06:56;;;;;;;29.63;20.75;;;;;;;1.80;66.31;99467.47;10309736;28;20157;-78
2022/11/19 12:12:27;;;;;;;28.05;20.17;;;;;;;1.66;66.52;99468.78;10326032;28;20054;-78
2022/11/19 12:18:03;;;;;;;30.10;20.20;;;;;;;1.88;66.33;99457.75;10299038;28;20054;-78
2022/11/19 12:23:21;;;;;;;29.77;20.88;;;;;;;1.94;66.27;99452.38;10318270;28;20046;-77
2022/11/19 12:29:02;;;;;;;27.05;18.58;;;;;;;1.86;65.79;99458.69;10307580;28;20857;-78
2022/11/19 12:34:37;;;;;;;30.00;19.63;;;;;;;1.60;66.32;99461.25;10325215;28;20117;-78
2022/11/19 12:40:17;;;;;;;31.10;21.67;;;;;;;1.79;66.59;99458.03;10309991;28;20057;-77
2022/11/19 12:45:44;;;;;;;30.65;20.48;;;;;;;1.92;66.74;99458.47;10309155;28;20055;-78
2022/11/19 12:51:07;;;;;;;29.92;20.73;;;;;;;1.81;66.78;99445.94;10323198;28;20054;-78
2022/11/19 12:56:45;;;;;;;26.60;19.33;;;;;;;1.84;66.51;99455.31;10322184;28;20137;-78
2022/11/19 13:01:54;;;;;;;27.65;17.95;;;;;;;1.68;66.70;99451.53;10324113;28;20050;-78
2022/11/19 13:07:28;;;;;;;26.52;19.08;;;;;;;1.90;66.44;99458.53;10306307;28;20096;-77
2022/11/19 13:12:36;;;;;;;26.08;18.45;;;;;;;1.92;65.81;99458.47;10311426;28;20169;-78
2022/11/19 13:17:55;;;;;;;26.15;19.13;;;;;;;1.69;65.29;99458.34;10308558;28;20060;-77
2022/11/19 13:23:03;;;;;;;26.10;18.20;;;;;;;1.72;66.29;99447.97;10310341;28;20053;-78
2022/11/19 13:28:19;;;;;;;23.40;16.80;;;;;;;1.85;66.01;99449.25;10306064;28;20050;-77
2022/11/19 13:33:38;;;;;;;23.52;17.45;;;;;;;1.91;66.96;99454.22;10318733;28;20057;-78
2022/11/19 13:38:48;;;;;;;24.55;17.95;;;;;;;2.00;65.70;99457.34;10308324;28;20141;-78
2022/11/19 13:49:32;;;;;;;21.88;16.23;;;;;;;1.83;65.72;99463.91;10311069;28;20054;-77
2022/11/19 13:54:39;;;;;;;25.67;18.00;;;;;;;2.10;66.06;99465.63;10313535;28;20057;-77
2022/11/19 14:00:21;;;;;;;23.83;16.35;;;;;;;2.04;65.29;99474.41;10310253;28;20081;-78
2022/11/19 14:05:33;;;;;;;22.88;16.80;;;;;;;2.09;65.00;99466.53;10319747;28;20424;-77
2022/11/19 14:10:41;;;;;;;26.50;17.98;;;;;;;2.11;65.56;99475.88;10306975;28;20087;-77
2022/11/19 14:27:13;;;;;;;21.85;16.30;;;;;;;2.12;64.63;99474.16;10302484;28;20053;-77
2022/11/19 14:32:27;;;;;;;23.48;16.08;;;;;;;1.98;64.71;99479.75;10316955;28;20069;-76
2022/11/19 14:37:40;;;;;;;23.35;16.83;;;;;;;1.95;64.87;99474.69;10307111;28;20046;-77
2022/11/19 14:48:21;;;;;;;20.63;15.52;;;;;;;1.84;65.18;99484.53;10317327;28;20525;-77
2022/11/19 14:53:24;;;;;;;21.55;15.70;;;;;;;2.00;65.30;99492.59;10317091;28;20050;-77
2022/11/19 14:58:26;;;;;;;22.63;16.48;;;;;;;1.94;65.00;99483.34;10333142;28;20058;-77
2022/11/19 15:03:29;;;;;;;20.73;15.85;;;;;;;1.71;65.39;99490.94;10322642;28;20064;-78
2022/11/19 15:08:52;;;;;;;23.35;16.52;;;;;;;1.80;65.33;99494.97;10329923;28;20073;-78
2022/11/19 15:14:26;;;;;;;25.92;16.35;;;;;;;1.65;64.69;99496.28;10319857;28;20058;-77
2022/11/19 15:19:38;;;;;;;21.83;15.77;;;;;;;1.78;65.14;99496.75;10314460;28;20057;-77
2022/11/19 15:25:17;;;;;;;22.58;16.20;;;;;;;1.88;65.37;99501.56;10314702;28;20050;-78
2022/11/19 15:30:23;;;;;;;22.50;15.88;;;;;;;1.99;65.23;99511.56;10314396;28;20065;-77
2022/11/19 15:35:35;;;;;;;23.00;16.13;;;;;;;1.91;64.89;99511.78;10316003;28;20061;-78
2022/11/19 15:40:38;;;;;;;26.27;18.10;;;;;;;1.97;65.73;99510.75;10331973;28;20055;-78
2022/11/19 15:45:46;;;;;;;27.10;17.77;;;;;;;2.09;65.63;99515.53;10314585;28;20080;-78
2022/11/19 15:50:49;;;;;;;24.30;16.98;;;;;;;2.03;65.65;99515.72;10313945;28;20046;-78
2022/11/19 15:55:52;;;;;;;24.08;16.75;;;;;;;1.89;65.05;99507.59;10310267;28;20065;-78
2022/11/19 16:00:54;;;;;;;20.17;15.48;;;;;;;1.95;65.04;99507.38;10311608;28;20539;-79
2022/11/19 16:06:14;;;;;;;24.42;17.08;;;;;;;2.04;65.29;99505.34;10313094;28;20061;-78
2022/11/19 16:22:16;;;;;;;24.67;16.88;;;;;;;1.73;65.06;99512.34;10309372;28;20054;-78
2022/11/19 16:27:21;;;;;;;20.80;15.77;;;;;;;1.87;65.08;99514.53;10311820;28;20061;-78
2022/11/19 16:32:26;;;;;;;23.40;17.13;;;;;;;1.54;65.01;99512.97;10309735;28;20161;-78
2022/11/19 16:37:29;;;;;;;23.17;15.68;;;;;;;1.53;65.35;99506.09;10308750;28;20046;-78
2022/11/19 16:42:38;;;;;;;19.42;14.52;;;;;;;1.56;64.95;99521.50;10313581;28;20061;-78
2022/11/19 16:47:58;;;;;;;19.70;13.82;;;;;;;1.56;63.97;99532.66;10318564;28;20050;-79
2022/11/19 16:53:04;;;;;;;19.42;14.73;;;;;;;1.41;64.50;99524.50;10311220;28;20058;-78
2022/11/19 16:58:24;;;;;;;21.48;15.57;;;;;;;1.48;64.99;99532.03;10301906;28;20054;-78
2022/11/19 17:03:38;;;;;;;20.10;15.05;;;;;;;1.31;63.41;99522.22;10318944;28;20447;-78
2022/11/19 17:08:55;;;;;;;22.83;16.25;;;;;;;1.51;64.61;99525.94;10323998;28;20054;-78
2022/11/19 17:14:18;;;;;;;21.35;15.90;;;;;;;1.83;64.81;99521.50;10312785;28;20054;-78
2022/11/19 17:19:30;;;;;;;22.10;15.88;;;;;;;1.89;64.02;99526.47;10309642;28;20054;-78
2022/11/19 17:24:46;;;;;;;24.50;16.10;;;;;;;1.83;64.56;99531.81;10305869;28;20061;-79
2022/11/19 17:29:48;;;;;;;21.77;15.68;;;;;;;1.97;64.71;99533.97;10315663;28;20077;-78
2022/11/19 17:34:54;;;;;;;19.77;15.45;;;;;;;1.91;64.30;99534.16;10306048;28;20058;-80
2022/11/19 17:39:55;;;;;;;22.40;16.50;;;;;;;1.92;64.55;99535.84;10321799;28;20058;-82
2022/11/19 17:44:59;;;;;;;21.67;15.98;;;;;;;1.87;63.81;99541.13;10308534;28;20058;-82
2022/11/19 17:50:10;;;;;;;25.73;16.70;;;;;;;1.73;63.48;99550.16;10308868;28;20050;-81
2022/11/19 17:55:19;;;;;;;23.23;16.35;;;;;;;1.67;63.50;99556.34;10305203;28;20058;-82
2022/11/19 18:00:28;;;;;;;22.45;15.73;;;;;;;1.59;63.92;99565.19;10308265;28;20050;-82
2022/11/19 18:05:36;;;;;;;23.77;15.55;;;;;;;1.69;63.59;99570.03;10308595;28;20585;-81
2022/11/19 18:10:41;;;;;;;22.77;16.20;;;;;;;1.60;63.85;99569.47;10307958;28;20054;-81
2022/11/19 18:15:43;;;;;;;19.88;14.55;;;;;;;1.66;63.83;99579.63;10305701;28;20054;-80
2022/11/19 18:20:46;;;;;;;21.25;15.57;;;;;;;1.57;64.00;99574.72;10319113;28;20046;-83
2022/11/19 18:25:51;;;;;;;21.13;14.82;;;;;;;1.57;63.26;99562.69;10323298;28;20050;-81
2022/11/19 18:30:54;;;;;;;24.80;16.70;;;;;;;1.69;63.70;99572.63;10314731;28;20054;-82
2022/11/19 18:35:59;;;;;;;22.67;16.77;;;;;;;1.51;63.31;99574.88;10317109;28;20073;-81
2022/11/19 18:41:03;;;;;;;21.48;15.40;;;;;;;1.50;63.26;99566.34;10314054;28;20058;-81
2022/11/19 18:46:08;;;;;;;20.98;15.32;;;;;;;1.63;63.46;99566.78;10314425;28;20046;-81
2022/11/19 18:51:11;;;;;;;20.65;15.43;;;;;;;1.80;63.32;99577.47;10311529;28;20055;-82
2022/11/19 18:56:14;;;;;;;23.05;16.95;;;;;;;1.86;63.14;99574.69;10315464;28;20061;-81
2022/11/19 19:01:17;;;;;;;22.90;16.17;;;;;;;1.96;63.77;99570.94;10313370;28;20046;-79
2022/11/19 19:06:21;;;;;;;21.20;15.60;;;;;;;1.88;62.84;99565.19;10314957;28;20389;-79
2022/11/19 19:16:43;;;;;;;21.30;14.88;;;;;;;1.61;62.68;99582.31;10314861;28;20054;-78
2022/11/19 19:21:45;;;;;;;21.02;15.30;;;;;;;1.79;62.70;99573.19;10326570;28;20057;-79
2022/11/19 19:26:47;;;;;;;20.85;15.57;;;;;;;1.97;63.36;99581.22;10316994;28;20060;-79
2022/11/19 19:31:49;;;;;;;23.45;16.40;;;;;;;2.06;63.63;99578.38;10314378;28;20077;-79
2022/11/19 19:36:51;;;;;;;22.48;16.05;;;;;;;1.94;62.44;99583.06;10313029;28;20054;-80
2022/11/19 19:41:54;;;;;;;22.52;16.23;;;;;;;1.75;62.38;99571.59;10320322;28;20042;-79
2022/11/19 19:46:55;;;;;;;23.63;15.98;;;;;;;1.93;63.12;99579.63;10313159;28;21225;-78
2022/11/19 19:51:57;;;;;;;20.90;14.93;;;;;;;1.89;62.43;99583.19;10309564;28;20061;-78
2022/11/19 19:56:59;;;;;;;21.02;15.35;;;;;;;1.85;62.64;99585.88;10316410;28;20061;-78
2022/11/19 20:02:00;;;;;;;20.85;15.10;;;;;;;1.80;62.45;99587.78;10312724;28;20058;-79
2022/11/19 20:07:02;;;;;;;23.80;16.38;;;;;;;1.93;62.75;99581.38;10314931;28;20050;-78
2022/11/19 20:12:04;;;;;;;19.38;15.13;;;;;;;1.79;62.24;99575.75;10312028;28;20165;-79
2022/11/19 20:17:06;;;;;;;22.25;16.15;;;;;;;1.91;62.44;99575.44;10312694;28;20062;-78
2022/11/19 20:22:09;;;;;;;20.25;14.90;;;;;;;1.92;63.04;99566.78;10326213;28;20061;-78
2022/11/19 20:27:12;;;;;;;20.65;14.55;;;;;;;2.04;62.62;99582.72;10313332;28;20504;-78
2022/11/19 20:32:17;;;;;;;21.02;15.73;;;;;;;1.96;62.22;99579.53;10328666;28;20144;-78
2022/11/19 20:37:22;;;;;;;24.80;17.30;;;;;;;1.90;63.19;99584.03;10305115;28;20046;-78
2022/11/19 20:47:45;;;;;;;21.48;16.02;;;;;;;2.03;62.47;99582.78;10306790;28;20042;-79
2022/11/19 20:52:47;;;;;;;18.63;14.00;;;;;;;1.72;62.05;99569.97;10319297;28;20050;-79
2022/11/19 20:57:54;;;;;;;19.98;14.98;;;;;;;1.56;62.12;99588.50;10316852;28;20050;-78
2022/11/19 21:02:56;;;;;;;18.80;14.23;;;;;;;1.67;62.05;99592.44;10311281;28;20057;-80
2022/11/19 21:07:58;;;;;;;21.27;14.95;;;;;;;1.84;61.54;99586.78;10310896;28;20050;-79
2022/11/19 21:13:02;;;;;;;20.70;14.63;;;;;;;1.83;61.85;99580.78;10309240;28;20057;-80
2022/11/19 21:18:05;;;;;;;20.63;14.98;;;;;;;1.82;61.79;99588.56;10311303;28;20049;-79
2022/11/19 21:23:07;;;;;;;22.45;14.77;;;;;;;1.82;61.82;99589.44;10311894;28;20054;-79
2022/11/19 21:28:10;;;;;;;21.60;14.10;;;;;;;1.69;61.97;99598.41;10311615;28;20058;-79
2022/11/19 21:33:12;;;;;;;18.13;13.57;;;;;;;1.77;61.36;99587.84;10309551;28;20050;-79
2022/11/19 21:38:14;;;;;;;18.48;13.55;;;;;;;1.54;61.43;99590.28;10311078;28;20054;-79
2022/11/19 21:43:16;;;;;;;19.00;14.00;;;;;;;1.69;61.80;99588.09;10324336;28;20054;-79
2022/11/19 21:48:20;;;;;;;21.75;14.80;;;;;;;1.86;61.69;99587.59;10309311;28;20089;-79
2022/11/19 21:53:22;;;;;;;19.80;14.50;;;;;;;1.71;61.23;99577.72;10324948;28;20062;-79
2022/11/19 21:58:23;;;;;;;20.40;15.02;;;;;;;1.66;61.47;99577.03;10319513;28;20052;-80
2022/11/19 22:03:27;;;;;;;22.25;14.63;;;;;;;1.79;61.82;99586.06;10323100;28;20078;-80
2022/11/19 22:08:30;;;;;;;18.50;13.75;;;;;;;1.70;60.76;99573.47;10317935;28;20050;-79
2022/11/19 22:13:32;;;;;;;20.75;14.68;;;;;;;1.53;61.18;99575.69;10317306;28;20189;-79
2022/11/19 22:18:34;;;;;;;20.48;14.10;;;;;;;1.61;61.56;99576.31;10317678;28;20394;-79
2022/11/19 22:23:36;;;;;;;21.13;14.60;;;;;;;1.58;61.55;99566.97;10334422;28;20058;-79
2022/11/19 22:28:38;;;;;;;19.08;14.27;;;;;;;1.69;61.29;99572.63;10319139;28;20051;-80
2022/11/19 22:33:40;;;;;;;19.13;14.23;;;;;;;1.72;61.10;99569.13;10318525;28;20050;-79
2022/11/19 22:38:42;;;;;;;20.42;14.48;;;;;;;1.57;61.67;99570.41;10318522;28;20579;-79
2022/11/19 22:43:45;;;;;;;20.10;14.38;;;;;;;1.59;61.41;99562.63;10316955;28;20057;-79
2022/11/19 22:48:47;;;;;;;21.80;14.32;;;;;;;1.64;61.16;99563.34;10315978;28;20051;-79
2022/11/19 22:53:49;;;;;;;19.17;14.32;;;;;;;1.67;61.00;99560.66;10323470;28;20072;-79
2022/11/19 22:58:52;;;;;;;22.23;14.43;;;;;;;1.75;61.52;99559.56;10316591;28;21009;-79
2022/11/19 23:03:55;;;;;;;17.92;13.50;;;;;;;1.74;60.94;99554.44;10315376;28;20065;-79
2022/11/19 23:08:57;;;;;;;18.88;14.40;;;;;;;1.73;61.35;99557.91;10317065;28;20057;-80
2022/11/19 23:13:58;;;;;;;19.85;14.77;;;;;;;1.68;61.07;99555.50;10318572;28;20050;-80
2022/11/19 23:19:00;;;;;;;19.63;14.50;;;;;;;1.70;61.21;99555.44;10324737;28;20046;-80
2022/11/19 23:24:03;;;;;;;19.20;14.68;;;;;;;1.76;61.08;99545.78;10317233;28;20072;-80
2022/11/19 23:29:05;;;;;;;20.20;14.90;;;;;;;1.82;60.70;99545.59;10317407;28;20053;-79
2022/11/19 23:34:07;;;;;;;20.63;14.60;;;;;;;1.65;60.93;99544.41;10317310;28;20085;-79
2022/11/19 23:39:14;;;;;;;21.25;14.52;;;;;;;1.51;61.16;99536.22;10315944;28;20496;-80
2022/11/19 23:44:16;;;;;;;21.73;15.57;;;;;;;1.65;61.39;99536.66;10331942;28;20081;-79
2022/11/19 23:49:17;;;;;;;21.50;15.77;;;;;;;1.80;61.77;99513.00;10324163;28;20493;-79
2022/11/19 23:54:20;;;;;;;21.20;15.15;;;;;;;1.86;60.98;99521.41;10314255;28;20069;-80
2022/11/19 23:59:21;;;;;;;21.05;15.52;;;;;;;1.77;61.56;99523.41;10314079;28;20050;-79
